sensor_id;sensor_type;location;lat;lon;timestamp;P1;durP1;ratioP1;P2;durP2;ratioP2
6537;SDS011;3302;52.508;13.454;2023-12-20T00:01:36;4.57;;;4.10;;
6537;SDS011;3302;52.508;13.454;2023-12-20T00:04:02;5.00;;;4.50;;
6537;SDS011;3302;52.508;13.454;2023-12-20T00:06:29;4.50;;;4.07;;
6537;SDS011;3302;52.508;13.454;2023-12-20T00:08:55;4.60;;;4.10;;
6537;SDS011;3302;52.508;13.454;2023-12-20T00:11:21;5.57;;;4.60;;
6537;SDS011;3302;52.508;13.454;2023-12-20T00:13:47;4.83;;;4.13;;
6537;SDS011;3302;52.508;13.454;2023-12-20T00:16:13;6.67;;;5.40;;
6537;SDS011;3302;52.508;13.454;2023-12-20T00:18:38;5.43;;;4.60;;
6537;SDS011;3302;52.508;13.454;2023-12-20T00:21:04;5.03;;;4.53;;
6537;SDS011;3302;52.508;13.454;2023-12-20T00:23:30;5.30;;;4.57;;
6537;SDS011;3302;52.508;13.454;2023-12-20T00:25:56;5.80;;;5.20;;
6537;SDS011;3302;52.508;13.454;2023-12-20T00:28:21;6.80;;;5.00;;
6537;SDS011;3302;52.508;13.454;2023-12-20T00:30:48;5.13;;;4.43;;
6537;SDS011;3302;52.508;13.454;2023-12-20T00:33:13;5.17;;;4.33;;
6537;SDS011;3302;52.508;13.454;2023-12-20T00:35:39;4.67;;;4.10;;
6537;SDS011;3302;52.508;13.454;2023-12-20T00:38:05;4.43;;;4.03;;
6537;SDS011;3302;52.508;13.454;2023-12-20T00:40:32;4.40;;;3.90;;
6537;SDS011;3302;52.508;13.454;2023-12-20T00:42:58;3.50;;;3.10;;
6537;SDS011;3302;52.508;13.454;2023-12-20T00:45:24;5.43;;;4.53;;
6537;SDS011;3302;52.508;13.454;2023-12-20T00:47:50;4.67;;;3.97;;
6537;SDS011;3302;52.508;13.454;2023-12-20T00:50:16;4.07;;;3.67;;
6537;SDS011;3302;52.508;13.454;2023-12-20T00:52:41;4.63;;;3.90;;
6537;SDS011;3302;52.508;13.454;2023-12-20T00:55:07;4.03;;;3.63;;
6537;SDS011;3302;52.508;13.454;2023-12-20T00:57:33;4.50;;;4.10;;
6537;SDS011;3302;52.508;13.454;2023-12-20T01:00:00;4.20;;;3.80;;
6537;SDS011;3302;52.508;13.454;2023-12-20T01:02:26;4.67;;;4.07;;
6537;SDS011;3302;52.508;13.454;2023-12-20T01:04:51;3.87;;;3.47;;
6537;SDS011;3302;52.508;13.454;2023-12-20T01:07:17;4.27;;;3.60;;
6537;SDS011;3302;52.508;13.454;2023-12-20T01:09:43;4.70;;;3.67;;
6537;SDS011;3302;52.508;13.454;2023-12-20T01:12:09;4.00;;;3.60;;
6537;SDS011;3302;52.508;13.454;2023-12-20T01:14:35;4.07;;;3.63;;
6537;SDS011;3302;52.508;13.454;2023-12-20T01:17:01;4.30;;;3.90;;
6537;SDS011;3302;52.508;13.454;2023-12-20T01:19:27;5.97;;;3.60;;
6537;SDS011;3302;52.508;13.454;2023-12-20T01:21:54;4.77;;;4.37;;
6537;SDS011;3302;52.508;13.454;2023-12-20T01:24:20;4.27;;;3.60;;
6537;SDS011;3302;52.508;13.454;2023-12-20T01:26:46;5.60;;;3.97;;
6537;SDS011;3302;52.508;13.454;2023-12-20T01:29:12;5.47;;;3.50;;
6537;SDS011;3302;52.508;13.454;2023-12-20T01:31:39;3.87;;;3.20;;
6537;SDS011;3302;52.508;13.454;2023-12-20T01:34:06;4.30;;;3.70;;
6537;SDS011;3302;52.508;13.454;2023-12-20T01:36:31;4.73;;;3.93;;
6537;SDS011;3302;52.508;13.454;2023-12-20T01:38:57;4.73;;;4.13;;
6537;SDS011;3302;52.508;13.454;2023-12-20T01:41:23;6.00;;;3.90;;
6537;SDS011;3302;52.508;13.454;2023-12-20T01:43:49;4.40;;;4.00;;
6537;SDS011;3302;52.508;13.454;2023-12-20T01:46:15;4.40;;;3.80;;
6537;SDS011;3302;52.508;13.454;2023-12-20T01:48:42;4.17;;;3.47;;
6537;SDS011;3302;52.508;13.454;2023-12-20T01:51:08;3.80;;;3.43;;
6537;SDS011;3302;52.508;13.454;2023-12-20T01:53:35;3.70;;;3.30;;
6537;SDS011;3302;52.508;13.454;2023-12-20T01:56:01;3.70;;;3.40;;
6537;SDS011;3302;52.508;13.454;2023-12-20T01:58:27;4.10;;;3.57;;
6537;SDS011;3302;52.508;13.454;2023-12-20T02:00:53;3.53;;;3.23;;
6537;SDS011;3302;52.508;13.454;2023-12-20T02:03:20;3.30;;;3.00;;
6537;SDS011;3302;52.508;13.454;2023-12-20T02:05:46;3.97;;;3.57;;
6537;SDS011;3302;52.508;13.454;2023-12-20T02:08:13;3.83;;;3.33;;
6537;SDS011;3302;52.508;13.454;2023-12-20T02:10:39;3.57;;;3.07;;
6537;SDS011;3302;52.508;13.454;2023-12-20T02:13:06;4.13;;;3.20;;
6537;SDS011;3302;52.508;13.454;2023-12-20T02:15:31;3.30;;;3.00;;
6537;SDS011;3302;52.508;13.454;2023-12-20T02:17:57;2.80;;;2.40;;
6537;SDS011;3302;52.508;13.454;2023-12-20T02:20:24;2.90;;;1.97;;
6537;SDS011;3302;52.508;13.454;2023-12-20T02:22:49;2.00;;;1.77;;
6537;SDS011;3302;52.508;13.454;2023-12-20T02:25:15;5.10;;;1.60;;
6537;SDS011;3302;52.508;13.454;2023-12-20T02:27:41;2.03;;;1.50;;
6537;SDS011;3302;52.508;13.454;2023-12-20T02:30:07;2.43;;;1.70;;
6537;SDS011;3302;52.508;13.454;2023-12-20T02:32:34;2.80;;;1.80;;
6537;SDS011;3302;52.508;13.454;2023-12-20T02:34:59;2.63;;;1.77;;
6537;SDS011;3302;52.508;13.454;2023-12-20T02:37:25;3.00;;;2.00;;
6537;SDS011;3302;52.508;13.454;2023-12-20T02:39:51;2.27;;;2.07;;
6537;SDS011;3302;52.508;13.454;2023-12-20T02:42:17;3.30;;;2.37;;
6537;SDS011;3302;52.508;13.454;2023-12-20T02:44:42;2.50;;;2.30;;
6537;SDS011;3302;52.508;13.454;2023-12-20T02:47:08;3.13;;;2.70;;
6537;SDS011;3302;52.508;13.454;2023-12-20T02:49:34;2.63;;;2.30;;
6537;SDS011;3302;52.508;13.454;2023-12-20T02:52:00;3.13;;;2.83;;
6537;SDS011;3302;52.508;13.454;2023-12-20T02:54:26;3.23;;;2.93;;
6537;SDS011;3302;52.508;13.454;2023-12-20T02:56:52;3.57;;;3.27;;
6537;SDS011;3302;52.508;13.454;2023-12-20T02:59:17;3.23;;;2.93;;
6537;SDS011;3302;52.508;13.454;2023-12-20T03:01:44;3.17;;;2.73;;
6537;SDS011;3302;52.508;13.454;2023-12-20T03:04:11;4.23;;;3.13;;
6537;SDS011;3302;52.508;13.454;2023-12-20T03:06:37;3.00;;;2.67;;
6537;SDS011;3302;52.508;13.454;2023-12-20T03:09:03;3.50;;;2.70;;
6537;SDS011;3302;52.508;13.454;2023-12-20T03:11:30;4.43;;;3.70;;
6537;SDS011;3302;52.508;13.454;2023-12-20T03:13:56;3.90;;;2.90;;
6537;SDS011;3302;52.508;13.454;2023-12-20T03:16:22;3.50;;;2.60;;
6537;SDS011;3302;52.508;13.454;2023-12-20T03:18:48;5.40;;;2.43;;
6537;SDS011;3302;52.508;13.454;2023-12-20T03:21:14;3.13;;;2.80;;
6537;SDS011;3302;52.508;13.454;2023-12-20T03:23:40;5.67;;;2.80;;
6537;SDS011;3302;52.508;13.454;2023-12-20T03:26:07;4.73;;;2.67;;
6537;SDS011;3302;52.508;13.454;2023-12-20T03:28:34;4.53;;;2.87;;
6537;SDS011;3302;52.508;13.454;2023-12-20T03:31:01;4.47;;;2.40;;
6537;SDS011;3302;52.508;13.454;2023-12-20T03:33:28;6.90;;;2.87;;
6537;SDS011;3302;52.508;13.454;2023-12-20T03:35:54;4.97;;;2.30;;
6537;SDS011;3302;52.508;13.454;2023-12-20T03:38:21;7.47;;;2.47;;
6537;SDS011;3302;52.508;13.454;2023-12-20T03:40:49;4.77;;;2.07;;
6537;SDS011;3302;52.508;13.454;2023-12-20T03:43:15;5.47;;;2.17;;
6537;SDS011;3302;52.508;13.454;2023-12-20T03:45:42;4.60;;;2.07;;
6537;SDS011;3302;52.508;13.454;2023-12-20T03:48:09;4.67;;;2.20;;
6537;SDS011;3302;52.508;13.454;2023-12-20T03:50:35;5.27;;;1.97;;
6537;SDS011;3302;52.508;13.454;2023-12-20T03:53:01;3.60;;;1.97;;
6537;SDS011;3302;52.508;13.454;2023-12-20T03:55:29;5.33;;;2.00;;
6537;SDS011;3302;52.508;13.454;2023-12-20T03:57:55;5.50;;;1.93;;
6537;SDS011;3302;52.508;13.454;2023-12-20T04:00:20;3.03;;;1.87;;
6537;SDS011;3302;52.508;13.454;2023-12-20T04:02:46;3.77;;;1.73;;
6537;SDS011;3302;52.508;13.454;2023-12-20T04:05:12;6.13;;;1.93;;
6537;SDS011;3302;52.508;13.454;2023-12-20T04:07:38;6.57;;;2.30;;
6537;SDS011;3302;52.508;13.454;2023-12-20T04:10:04;9.77;;;1.80;;
6537;SDS011;3302;52.508;13.454;2023-12-20T04:12:30;6.80;;;2.10;;
6537;SDS011;3302;52.508;13.454;2023-12-20T04:14:57;4.50;;;1.73;;
6537;SDS011;3302;52.508;13.454;2023-12-20T04:17:23;5.20;;;2.13;;
6537;SDS011;3302;52.508;13.454;2023-12-20T04:19:49;4.70;;;2.00;;
6537;SDS011;3302;52.508;13.454;2023-12-20T04:22:16;8.57;;;3.27;;
6537;SDS011;3302;52.508;13.454;2023-12-20T04:24:43;5.60;;;1.43;;
6537;SDS011;3302;52.508;13.454;2023-12-20T04:27:09;7.33;;;2.43;;
6537;SDS011;3302;52.508;13.454;2023-12-20T04:29:35;4.57;;;2.00;;
6537;SDS011;3302;52.508;13.454;2023-12-20T04:32:00;7.07;;;2.03;;
6537;SDS011;3302;52.508;13.454;2023-12-20T04:34:26;5.80;;;1.73;;
6537;SDS011;3302;52.508;13.454;2023-12-20T04:36:52;3.07;;;1.63;;
6537;SDS011;3302;52.508;13.454;2023-12-20T04:39:18;4.90;;;1.77;;
6537;SDS011;3302;52.508;13.454;2023-12-20T04:41:44;6.70;;;1.90;;
6537;SDS011;3302;52.508;13.454;2023-12-20T04:44:10;5.00;;;1.77;;
6537;SDS011;3302;52.508;13.454;2023-12-20T04:46:36;7.93;;;2.00;;
6537;SDS011;3302;52.508;13.454;2023-12-20T04:49:01;7.77;;;1.97;;
6537;SDS011;3302;52.508;13.454;2023-12-20T04:51:27;4.40;;;2.07;;
6537;SDS011;3302;52.508;13.454;2023-12-20T04:53:53;5.60;;;1.77;;
6537;SDS011;3302;52.508;13.454;2023-12-20T04:56:19;3.57;;;1.67;;
6537;SDS011;3302;52.508;13.454;2023-12-20T04:58:45;7.77;;;1.60;;
6537;SDS011;3302;52.508;13.454;2023-12-20T05:01:11;5.27;;;1.87;;
6537;SDS011;3302;52.508;13.454;2023-12-20T05:03:37;3.90;;;1.40;;
6537;SDS011;3302;52.508;13.454;2023-12-20T05:06:03;5.33;;;1.97;;
6537;SDS011;3302;52.508;13.454;2023-12-20T05:08:29;6.20;;;1.60;;
6537;SDS011;3302;52.508;13.454;2023-12-20T05:10:54;4.93;;;1.73;;
6537;SDS011;3302;52.508;13.454;2023-12-20T05:13:21;5.00;;;2.23;;
6537;SDS011;3302;52.508;13.454;2023-12-20T05:15:47;5.37;;;1.67;;
6537;SDS011;3302;52.508;13.454;2023-12-20T05:18:13;5.20;;;1.73;;
6537;SDS011;3302;52.508;13.454;2023-12-20T05:20:39;3.77;;;1.73;;
6537;SDS011;3302;52.508;13.454;2023-12-20T05:23:05;5.03;;;2.00;;
6537;SDS011;3302;52.508;13.454;2023-12-20T05:25:31;6.10;;;2.00;;
6537;SDS011;3302;52.508;13.454;2023-12-20T05:27:57;4.40;;;1.70;;
6537;SDS011;3302;52.508;13.454;2023-12-20T05:30:23;8.70;;;2.10;;
6537;SDS011;3302;52.508;13.454;2023-12-20T05:32:49;5.67;;;2.10;;
6537;SDS011;3302;52.508;13.454;2023-12-20T05:35:15;8.47;;;2.00;;
6537;SDS011;3302;52.508;13.454;2023-12-20T05:37:41;4.03;;;1.60;;
6537;SDS011;3302;52.508;13.454;2023-12-20T05:40:07;7.63;;;2.13;;
6537;SDS011;3302;52.508;13.454;2023-12-20T05:42:36;8.47;;;1.83;;
6537;SDS011;3302;52.508;13.454;2023-12-20T05:45:03;6.77;;;2.00;;
6537;SDS011;3302;52.508;13.454;2023-12-20T05:47:31;4.57;;;1.70;;
6537;SDS011;3302;52.508;13.454;2023-12-20T05:49:57;6.23;;;1.70;;
6537;SDS011;3302;52.508;13.454;2023-12-20T05:52:22;2.87;;;1.37;;
6537;SDS011;3302;52.508;13.454;2023-12-20T05:54:48;5.57;;;1.83;;
6537;SDS011;3302;52.508;13.454;2023-12-20T05:57:14;4.33;;;1.70;;
6537;SDS011;3302;52.508;13.454;2023-12-20T05:59:40;4.40;;;1.50;;
6537;SDS011;3302;52.508;13.454;2023-12-20T06:02:06;6.73;;;1.57;;
6537;SDS011;3302;52.508;13.454;2023-12-20T06:04:31;7.80;;;1.77;;
6537;SDS011;3302;52.508;13.454;2023-12-20T06:06:58;8.50;;;1.87;;
6537;SDS011;3302;52.508;13.454;2023-12-20T06:09:25;5.47;;;1.90;;
6537;SDS011;3302;52.508;13.454;2023-12-20T06:11:53;3.00;;;1.77;;
6537;SDS011;3302;52.508;13.454;2023-12-20T06:14:19;7.87;;;2.37;;
6537;SDS011;3302;52.508;13.454;2023-12-20T06:16:45;8.13;;;1.80;;
6537;SDS011;3302;52.508;13.454;2023-12-20T06:19:11;5.00;;;1.60;;
6537;SDS011;3302;52.508;13.454;2023-12-20T06:21:37;3.00;;;1.40;;
6537;SDS011;3302;52.508;13.454;2023-12-20T06:24:03;5.03;;;1.73;;
6537;SDS011;3302;52.508;13.454;2023-12-20T06:26:29;6.43;;;1.93;;
6537;SDS011;3302;52.508;13.454;2023-12-20T06:28:55;5.90;;;2.00;;
6537;SDS011;3302;52.508;13.454;2023-12-20T06:31:21;7.17;;;2.03;;
6537;SDS011;3302;52.508;13.454;2023-12-20T06:33:47;7.43;;;2.00;;
6537;SDS011;3302;52.508;13.454;2023-12-20T06:36:14;7.73;;;1.93;;
6537;SDS011;3302;52.508;13.454;2023-12-20T06:38:42;6.60;;;2.07;;
6537;SDS011;3302;52.508;13.454;2023-12-20T06:41:08;5.50;;;1.70;;
6537;SDS011;3302;52.508;13.454;2023-12-20T06:43:33;3.57;;;1.60;;
6537;SDS011;3302;52.508;13.454;2023-12-20T06:46:02;6.33;;;1.80;;
6537;SDS011;3302;52.508;13.454;2023-12-20T06:48:28;7.87;;;2.40;;
6537;SDS011;3302;52.508;13.454;2023-12-20T06:50:54;3.83;;;1.70;;
6537;SDS011;3302;52.508;13.454;2023-12-20T06:53:20;4.00;;;1.90;;
6537;SDS011;3302;52.508;13.454;2023-12-20T06:55:45;6.33;;;1.93;;
6537;SDS011;3302;52.508;13.454;2023-12-20T06:58:11;5.00;;;1.90;;
6537;SDS011;3302;52.508;13.454;2023-12-20T07:00:37;8.97;;;1.97;;
6537;SDS011;3302;52.508;13.454;2023-12-20T07:03:03;6.57;;;1.97;;
6537;SDS011;3302;52.508;13.454;2023-12-20T07:05:30;6.50;;;2.33;;
6537;SDS011;3302;52.508;13.454;2023-12-20T07:07:56;3.53;;;1.97;;
6537;SDS011;3302;52.508;13.454;2023-12-20T07:10:22;5.53;;;1.80;;
6537;SDS011;3302;52.508;13.454;2023-12-20T07:12:48;6.33;;;1.93;;
6537;SDS011;3302;52.508;13.454;2023-12-20T07:15:14;5.27;;;2.10;;
6537;SDS011;3302;52.508;13.454;2023-12-20T07:17:39;7.77;;;1.90;;
6537;SDS011;3302;52.508;13.454;2023-12-20T07:20:05;5.83;;;2.00;;
6537;SDS011;3302;52.508;13.454;2023-12-20T07:22:34;10.90;;;2.43;;
6537;SDS011;3302;52.508;13.454;2023-12-20T07:25:01;7.07;;;2.10;;
6537;SDS011;3302;52.508;13.454;2023-12-20T07:27:27;5.07;;;2.03;;
6537;SDS011;3302;52.508;13.454;2023-12-20T07:29:53;10.83;;;2.53;;
6537;SDS011;3302;52.508;13.454;2023-12-20T07:32:18;5.77;;;2.63;;
6537;SDS011;3302;52.508;13.454;2023-12-20T07:34:44;5.90;;;2.50;;
6537;SDS011;3302;52.508;13.454;2023-12-20T07:37:10;6.80;;;2.27;;
6537;SDS011;3302;52.508;13.454;2023-12-20T07:39:39;8.23;;;2.17;;
6537;SDS011;3302;52.508;13.454;2023-12-20T07:42:06;4.03;;;1.80;;
6537;SDS011;3302;52.508;13.454;2023-12-20T07:44:33;7.53;;;1.90;;
6537;SDS011;3302;52.508;13.454;2023-12-20T07:46:59;5.47;;;2.13;;
6537;SDS011;3302;52.508;13.454;2023-12-20T07:49:26;11.90;;;2.40;;
6537;SDS011;3302;52.508;13.454;2023-12-20T07:51:52;3.93;;;2.10;;
6537;SDS011;3302;52.508;13.454;2023-12-20T07:54:17;8.10;;;2.03;;
6537;SDS011;3302;52.508;13.454;2023-12-20T07:56:43;5.00;;;2.10;;
6537;SDS011;3302;52.508;13.454;2023-12-20T07:59:09;3.93;;;1.50;;
6537;SDS011;3302;52.508;13.454;2023-12-20T08:01:35;5.13;;;2.33;;
6537;SDS011;3302;52.508;13.454;2023-12-20T08:04:01;5.70;;;1.73;;
6537;SDS011;3302;52.508;13.454;2023-12-20T08:06:28;5.20;;;2.03;;
6537;SDS011;3302;52.508;13.454;2023-12-20T08:08:54;6.17;;;2.07;;
6537;SDS011;3302;52.508;13.454;2023-12-20T08:11:19;7.00;;;2.20;;
6537;SDS011;3302;52.508;13.454;2023-12-20T08:13:45;5.30;;;2.47;;
6537;SDS011;3302;52.508;13.454;2023-12-20T08:16:11;7.37;;;2.77;;
6537;SDS011;3302;52.508;13.454;2023-12-20T08:18:39;7.50;;;2.00;;
6537;SDS011;3302;52.508;13.454;2023-12-20T08:21:05;5.87;;;1.70;;
6537;SDS011;3302;52.508;13.454;2023-12-20T08:23:33;4.77;;;1.90;;
6537;SDS011;3302;52.508;13.454;2023-12-20T08:26:04;3.43;;;1.80;;
6537;SDS011;3302;52.508;13.454;2023-12-20T08:28:32;5.33;;;1.90;;
6537;SDS011;3302;52.508;13.454;2023-12-20T08:30:58;7.67;;;2.03;;
6537;SDS011;3302;52.508;13.454;2023-12-20T08:33:24;4.60;;;1.80;;
6537;SDS011;3302;52.508;13.454;2023-12-20T08:35:49;7.07;;;1.97;;
6537;SDS011;3302;52.508;13.454;2023-12-20T08:38:15;9.37;;;2.17;;
6537;SDS011;3302;52.508;13.454;2023-12-20T08:40:43;10.03;;;1.90;;
6537;SDS011;3302;52.508;13.454;2023-12-20T08:43:09;4.17;;;1.77;;
6537;SDS011;3302;52.508;13.454;2023-12-20T08:45:35;8.60;;;2.30;;
6537;SDS011;3302;52.508;13.454;2023-12-20T08:48:01;5.70;;;2.07;;
6537;SDS011;3302;52.508;13.454;2023-12-20T08:50:28;2.77;;;1.43;;
6537;SDS011;3302;52.508;13.454;2023-12-20T08:52:54;5.07;;;1.80;;
6537;SDS011;3302;52.508;13.454;2023-12-20T08:55:20;4.30;;;1.70;;
6537;SDS011;3302;52.508;13.454;2023-12-20T08:57:46;3.87;;;1.60;;
6537;SDS011;3302;52.508;13.454;2023-12-20T09:00:12;5.87;;;1.80;;
6537;SDS011;3302;52.508;13.454;2023-12-20T09:02:40;5.83;;;1.50;;
6537;SDS011;3302;52.508;13.454;2023-12-20T09:05:06;3.47;;;1.93;;
6537;SDS011;3302;52.508;13.454;2023-12-20T09:07:32;4.23;;;1.70;;
6537;SDS011;3302;52.508;13.454;2023-12-20T09:09:58;2.90;;;1.50;;
6537;SDS011;3302;52.508;13.454;2023-12-20T09:12:24;3.00;;;1.47;;
6537;SDS011;3302;52.508;13.454;2023-12-20T09:14:50;3.20;;;1.63;;
6537;SDS011;3302;52.508;13.454;2023-12-20T09:17:17;4.33;;;1.50;;
6537;SDS011;3302;52.508;13.454;2023-12-20T09:19:44;5.00;;;1.60;;
6537;SDS011;3302;52.508;13.454;2023-12-20T09:22:10;3.97;;;1.70;;
6537;SDS011;3302;52.508;13.454;2023-12-20T09:24:36;5.20;;;1.97;;
6537;SDS011;3302;52.508;13.454;2023-12-20T09:27:03;3.90;;;1.53;;
6537;SDS011;3302;52.508;13.454;2023-12-20T09:29:30;3.70;;;1.87;;
6537;SDS011;3302;52.508;13.454;2023-12-20T09:31:56;3.80;;;1.70;;
6537;SDS011;3302;52.508;13.454;2023-12-20T09:34:22;4.83;;;1.80;;
6537;SDS011;3302;52.508;13.454;2023-12-20T09:36:49;5.83;;;2.07;;
6537;SDS011;3302;52.508;13.454;2023-12-20T09:39:19;6.23;;;1.83;;
6537;SDS011;3302;52.508;13.454;2023-12-20T09:41:47;6.47;;;2.23;;
6537;SDS011;3302;52.508;13.454;2023-12-20T09:44:28;9.37;;;2.00;;
6537;SDS011;3302;52.508;13.454;2023-12-20T09:46:54;6.20;;;1.80;;
6537;SDS011;3302;52.508;13.454;2023-12-20T09:49:21;6.57;;;2.10;;
6537;SDS011;3302;52.508;13.454;2023-12-20T09:51:47;6.30;;;2.03;;
6537;SDS011;3302;52.508;13.454;2023-12-20T09:54:16;8.40;;;2.43;;
6537;SDS011;3302;52.508;13.454;2023-12-20T09:56:43;7.77;;;1.80;;
6537;SDS011;3302;52.508;13.454;2023-12-20T09:59:09;5.23;;;1.57;;
6537;SDS011;3302;52.508;13.454;2023-12-20T10:01:37;6.07;;;1.83;;
6537;SDS011;3302;52.508;13.454;2023-12-20T10:04:05;9.00;;;1.70;;
6537;SDS011;3302;52.508;13.454;2023-12-20T10:06:37;4.43;;;1.73;;
6537;SDS011;3302;52.508;13.454;2023-12-20T10:09:04;5.77;;;1.93;;
6537;SDS011;3302;52.508;13.454;2023-12-20T10:11:31;7.80;;;1.90;;
6537;SDS011;3302;52.508;13.454;2023-12-20T10:14:00;10.57;;;2.27;;
6537;SDS011;3302;52.508;13.454;2023-12-20T10:16:26;6.97;;;2.20;;
6537;SDS011;3302;52.508;13.454;2023-12-20T10:18:53;5.40;;;1.87;;
6537;SDS011;3302;52.508;13.454;2023-12-20T10:21:20;4.50;;;1.83;;
6537;SDS011;3302;52.508;13.454;2023-12-20T10:23:50;8.67;;;2.00;;
6537;SDS011;3302;52.508;13.454;2023-12-20T10:26:20;7.47;;;2.20;;
6537;SDS011;3302;52.508;13.454;2023-12-20T10:28:56;6.70;;;2.20;;
6537;SDS011;3302;52.508;13.454;2023-12-20T10:31:32;8.33;;;2.17;;
6537;SDS011;3302;52.508;13.454;2023-12-20T10:33:59;6.37;;;1.87;;
6537;SDS011;3302;52.508;13.454;2023-12-20T10:36:28;5.83;;;2.10;;
6537;SDS011;3302;52.508;13.454;2023-12-20T10:38:55;7.57;;;2.00;;
6537;SDS011;3302;52.508;13.454;2023-12-20T10:41:26;3.33;;;1.63;;
6537;SDS011;3302;52.508;13.454;2023-12-20T10:43:54;6.17;;;2.00;;
6537;SDS011;3302;52.508;13.454;2023-12-20T10:46:33;6.57;;;1.97;;
6537;SDS011;3302;52.508;13.454;2023-12-20T10:48:59;6.87;;;1.97;;
6537;SDS011;3302;52.508;13.454;2023-12-20T10:51:28;8.03;;;2.30;;
6537;SDS011;3302;52.508;13.454;2023-12-20T10:53:57;7.27;;;2.43;;
6537;SDS011;3302;52.508;13.454;2023-12-20T10:56:23;8.43;;;2.23;;
6537;SDS011;3302;52.508;13.454;2023-12-20T10:58:52;9.60;;;2.77;;
6537;SDS011;3302;52.508;13.454;2023-12-20T11:01:18;3.97;;;1.80;;
6537;SDS011;3302;52.508;13.454;2023-12-20T11:03:52;7.60;;;2.27;;
6537;SDS011;3302;52.508;13.454;2023-12-20T11:06:26;6.17;;;2.23;;
6537;SDS011;3302;52.508;13.454;2023-12-20T11:09:03;5.30;;;2.20;;
6537;SDS011;3302;52.508;13.454;2023-12-20T11:14:22;6.40;;;2.27;;
6537;SDS011;3302;52.508;13.454;2023-12-20T11:16:50;7.63;;;2.20;;
6537;SDS011;3302;52.508;13.454;2023-12-20T11:19:30;5.27;;;2.37;;
6537;SDS011;3302;52.508;13.454;2023-12-20T11:21:56;7.17;;;1.93;;
6537;SDS011;3302;52.508;13.454;2023-12-20T11:24:22;3.60;;;2.13;;
6537;SDS011;3302;52.508;13.454;2023-12-20T11:26:49;7.40;;;2.60;;
6537;SDS011;3302;52.508;13.454;2023-12-20T11:29:35;6.87;;;2.27;;
6537;SDS011;3302;52.508;13.454;2023-12-20T11:32:02;9.20;;;2.40;;
6537;SDS011;3302;52.508;13.454;2023-12-20T11:34:31;7.37;;;2.47;;
6537;SDS011;3302;52.508;13.454;2023-12-20T11:37:02;8.07;;;2.10;;
6537;SDS011;3302;52.508;13.454;2023-12-20T11:39:29;5.97;;;2.50;;
6537;SDS011;3302;52.508;13.454;2023-12-20T11:41:56;5.40;;;2.30;;
6537;SDS011;3302;52.508;13.454;2023-12-20T11:44:23;7.40;;;2.33;;
6537;SDS011;3302;52.508;13.454;2023-12-20T11:46:50;6.97;;;2.47;;
6537;SDS011;3302;52.508;13.454;2023-12-20T11:49:16;9.07;;;2.10;;
6537;SDS011;3302;52.508;13.454;2023-12-20T11:51:42;5.67;;;2.03;;
6537;SDS011;3302;52.508;13.454;2023-12-20T11:54:09;9.77;;;2.57;;
6537;SDS011;3302;52.508;13.454;2023-12-20T11:56:36;5.03;;;2.33;;
6537;SDS011;3302;52.508;13.454;2023-12-20T11:59:02;4.37;;;2.00;;
6537;SDS011;3302;52.508;13.454;2023-12-20T12:01:28;5.27;;;1.90;;
6537;SDS011;3302;52.508;13.454;2023-12-20T12:04:06;5.70;;;2.50;;
6537;SDS011;3302;52.508;13.454;2023-12-20T12:06:32;7.20;;;2.57;;
6537;SDS011;3302;52.508;13.454;2023-12-20T12:08:58;7.27;;;2.40;;
6537;SDS011;3302;52.508;13.454;2023-12-20T12:11:24;5.23;;;1.90;;
6537;SDS011;3302;52.508;13.454;2023-12-20T12:13:50;5.73;;;1.70;;
6537;SDS011;3302;52.508;13.454;2023-12-20T12:16:17;5.90;;;2.07;;
6537;SDS011;3302;52.508;13.454;2023-12-20T12:18:44;8.10;;;2.27;;
6537;SDS011;3302;52.508;13.454;2023-12-20T12:21:10;7.53;;;2.00;;
6537;SDS011;3302;52.508;13.454;2023-12-20T12:23:43;7.13;;;2.37;;
6537;SDS011;3302;52.508;13.454;2023-12-20T12:26:09;3.80;;;2.23;;
6537;SDS011;3302;52.508;13.454;2023-12-20T12:28:35;6.50;;;2.20;;
6537;SDS011;3302;52.508;13.454;2023-12-20T12:31:01;6.37;;;2.30;;
6537;SDS011;3302;52.508;13.454;2023-12-20T12:33:27;4.57;;;1.90;;
6537;SDS011;3302;52.508;13.454;2023-12-20T12:35:54;5.83;;;2.30;;
6537;SDS011;3302;52.508;13.454;2023-12-20T12:38:20;4.77;;;1.77;;
6537;SDS011;3302;52.508;13.454;2023-12-20T12:40:46;5.70;;;1.97;;
6537;SDS011;3302;52.508;13.454;2023-12-20T12:43:13;8.90;;;2.17;;
6537;SDS011;3302;52.508;13.454;2023-12-20T12:45:38;5.90;;;2.33;;
6537;SDS011;3302;52.508;13.454;2023-12-20T12:48:04;7.83;;;2.57;;
6537;SDS011;3302;52.508;13.454;2023-12-20T12:50:30;6.30;;;2.50;;
6537;SDS011;3302;52.508;13.454;2023-12-20T12:52:57;8.07;;;2.70;;
6537;SDS011;3302;52.508;13.454;2023-12-20T12:55:22;4.80;;;1.87;;
6537;SDS011;3302;52.508;13.454;2023-12-20T12:57:48;3.67;;;2.10;;
6537;SDS011;3302;52.508;13.454;2023-12-20T13:00:14;3.60;;;1.83;;
6537;SDS011;3302;52.508;13.454;2023-12-20T13:02:40;3.47;;;1.63;;
6537;SDS011;3302;52.508;13.454;2023-12-20T13:05:09;5.60;;;2.00;;
6537;SDS011;3302;52.508;13.454;2023-12-20T13:07:36;4.63;;;1.97;;
6537;SDS011;3302;52.508;13.454;2023-12-20T13:10:02;8.13;;;2.17;;
6537;SDS011;3302;52.508;13.454;2023-12-20T13:12:29;9.03;;;2.00;;
6537;SDS011;3302;52.508;13.454;2023-12-20T13:14:55;4.43;;;1.70;;
6537;SDS011;3302;52.508;13.454;2023-12-20T13:17:21;4.87;;;2.03;;
6537;SDS011;3302;52.508;13.454;2023-12-20T13:19:46;5.40;;;2.33;;
6537;SDS011;3302;52.508;13.454;2023-12-20T13:22:12;7.10;;;2.63;;
6537;SDS011;3302;52.508;13.454;2023-12-20T13:24:38;5.93;;;2.90;;
6537;SDS011;3302;52.508;13.454;2023-12-20T13:27:04;7.20;;;1.60;;
6537;SDS011;3302;52.508;13.454;2023-12-20T13:29:30;2.43;;;1.13;;
6537;SDS011;3302;52.508;13.454;2023-12-20T13:31:56;3.97;;;2.00;;
6537;SDS011;3302;52.508;13.454;2023-12-20T13:34:22;2.10;;;1.37;;
6537;SDS011;3302;52.508;13.454;2023-12-20T13:36:48;2.83;;;1.20;;
6537;SDS011;3302;52.508;13.454;2023-12-20T13:39:16;6.07;;;1.50;;
6537;SDS011;3302;52.508;13.454;2023-12-20T13:41:42;2.23;;;1.07;;
6537;SDS011;3302;52.508;13.454;2023-12-20T13:44:08;2.77;;;1.10;;
6537;SDS011;3302;52.508;13.454;2023-12-20T13:46:34;1.93;;;1.20;;
6537;SDS011;3302;52.508;13.454;2023-12-20T13:48:59;2.13;;;1.17;;
6537;SDS011;3302;52.508;13.454;2023-12-20T13:51:25;2.63;;;1.73;;
6537;SDS011;3302;52.508;13.454;2023-12-20T13:53:51;2.23;;;1.00;;
6537;SDS011;3302;52.508;13.454;2023-12-20T13:56:17;2.27;;;1.13;;
6537;SDS011;3302;52.508;13.454;2023-12-20T13:58:45;1.83;;;1.10;;
6537;SDS011;3302;52.508;13.454;2023-12-20T14:01:12;2.57;;;1.57;;
6537;SDS011;3302;52.508;13.454;2023-12-20T14:03:38;2.83;;;1.50;;
6537;SDS011;3302;52.508;13.454;2023-12-20T14:06:03;1.83;;;1.30;;
6537;SDS011;3302;52.508;13.454;2023-12-20T14:08:29;2.77;;;1.60;;
6537;SDS011;3302;52.508;13.454;2023-12-20T14:10:55;2.93;;;1.60;;
6537;SDS011;3302;52.508;13.454;2023-12-20T14:13:21;5.33;;;2.57;;
6537;SDS011;3302;52.508;13.454;2023-12-20T14:15:47;4.03;;;1.60;;
6537;SDS011;3302;52.508;13.454;2023-12-20T14:18:14;2.40;;;1.30;;
6537;SDS011;3302;52.508;13.454;2023-12-20T14:20:40;2.80;;;1.33;;
6537;SDS011;3302;52.508;13.454;2023-12-20T14:23:08;1.10;;;0.90;;
6537;SDS011;3302;52.508;13.454;2023-12-20T14:25:40;3.63;;;1.33;;
6537;SDS011;3302;52.508;13.454;2023-12-20T14:28:07;2.73;;;1.90;;
6537;SDS011;3302;52.508;13.454;2023-12-20T14:30:32;3.77;;;1.30;;
6537;SDS011;3302;52.508;13.454;2023-12-20T14:33:00;3.53;;;1.87;;
6537;SDS011;3302;52.508;13.454;2023-12-20T14:35:26;1.30;;;1.10;;
6537;SDS011;3302;52.508;13.454;2023-12-20T14:37:51;1.70;;;1.23;;
6537;SDS011;3302;52.508;13.454;2023-12-20T14:40:18;2.77;;;1.30;;
6537;SDS011;3302;52.508;13.454;2023-12-20T14:42:45;3.57;;;1.27;;
6537;SDS011;3302;52.508;13.454;2023-12-20T14:45:11;3.30;;;1.00;;
6537;SDS011;3302;52.508;13.454;2023-12-20T14:47:41;2.50;;;1.07;;
6537;SDS011;3302;52.508;13.454;2023-12-20T14:50:07;1.10;;;0.90;;
6537;SDS011;3302;52.508;13.454;2023-12-20T14:52:33;2.10;;;1.00;;
6537;SDS011;3302;52.508;13.454;2023-12-20T14:54:59;3.00;;;1.00;;
6537;SDS011;3302;52.508;13.454;2023-12-20T14:57:27;3.33;;;1.10;;
6537;SDS011;3302;52.508;13.454;2023-12-20T14:59:55;3.47;;;0.93;;